Time;durP1;ratioP1;P1;durP2;ratioP2;P2;SDS_P1;SDS_P2;PMS_P1;PMS_P2;Temp;Humidity;BMP_temperature;BMP_pressure;BME280_temperature;BME280_humidity;BME280_pressure;Samples;Min_cycle;Max_cycle;Signal;HPM_P1;HPM_P2
2021/01/14 00:01:19;;;;;;;8.10;1.20;;;2.50;99.90;;;;;;5062572;28;20071;-72
2021/01/14 00:03:45;;;;;;;9.55;1.33;;;2.50;99.90;;;;;;5061236;28;20048;-71
2021/01/14 00:06:13;;;;;;;4.57;1.10;;;2.70;99.90;;;;;;5061699;28;20120;-72
2021/01/14 00:08:38;;;;;;;9.55;1.92;;;2.80;99.90;;;;;;5061405;28;20052;-71
2021/01/14 00:11:04;;;;;;;11.55;1.27;;;2.80;99.90;;;;;;5062013;28;20422;-71
2021/01/14 00:13:30;;;;;;;10.60;2.72;;;2.80;99.90;;;;;;5061029;28;20044;-72
2021/01/14 00:15:55;;;;;;;13.93;1.20;;;2.90;99.90;;;;;;5062869;28;20052;-70
2021/01/14 00:18:21;;;;;;;11.68;1.58;;;2.70;99.90;;;;;;5065031;28;20048;-70
2021/01/14 00:20:46;;;;;;;6.47;1.27;;;2.60;99.90;;;;;;5065647;28;20090;-71
2021/01/14 00:23:12;;;;;;;9.75;1.20;;;2.60;99.90;;;;;;5064482;28;20036;-71
2021/01/14 00:25:38;;;;;;;11.13;1.25;;;2.60;99.90;;;;;;5065631;28;20048;-70
2021/01/14 00:28:03;;;;;;;8.50;1.48;;;2.70;99.90;;;;;;5066146;28;20043;-72
2021/01/14 00:30:31;;;;;;;8.50;1.45;;;2.70;99.90;;;;;;5064769;28;20041;-70
2021/01/14 00:33:00;;;;;;;8.07;1.52;;;2.70;99.90;;;;;;5064393;28;20037;-71
2021/01/14 00:35:27;;;;;;;7.40;1.70;;;2.80;99.90;;;;;;5064723;28;20043;-71
2021/01/14 00:37:53;;;;;;;7.68;1.02;;;2.80;99.90;;;;;;5064344;28;20044;-72
2021/01/14 00:40:33;;;;;;;12.30;1.23;;;2.80;99.90;;;;;;5065805;28;20040;-72
2021/01/14 00:43:02;;;;;;;8.07;1.13;;;2.80;99.90;;;;;;5064833;28;20113;-72
2021/01/14 00:45:30;;;;;;;4.68;1.73;;;2.80;99.90;;;;;;5065203;28;20090;-70
2021/01/14 00:47:56;;;;;;;6.13;0.90;;;2.70;99.90;;;;;;5064197;28;20513;-71
2021/01/14 00:50:22;;;;;;;10.50;2.25;;;2.70;99.90;;;;;;5065368;28;20086;-72
2021/01/14 00:52:49;;;;;;;9.80;1.88;;;2.80;99.90;;;;;;5063920;28;20041;-70
2021/01/14 00:55:18;;;;;;;11.43;1.40;;;2.80;99.90;;;;;;5065001;28;20052;-71
2021/01/14 00:57:44;;;;;;;6.35;1.23;;;2.70;99.90;;;;;;5064643;28;20057;-72
2021/01/14 01:00:13;;;;;;;9.95;1.52;;;2.70;99.90;;;;;;5065100;28;20079;-72
2021/01/14 01:02:40;;;;;;;7.53;1.10;;;2.60;99.90;;;;;;5063678;28;20143;-71
2021/01/14 01:05:07;;;;;;;6.25;1.25;;;2.50;99.90;;;;;;5065906;28;20167;-73
2021/01/14 01:07:33;;;;;;;6.70;1.13;;;2.50;99.90;;;;;;5064741;28;20041;-70
2021/01/14 01:09:58;;;;;;;7.03;1.10;;;2.40;99.90;;;;;;5064339;28;20540;-72
2021/01/14 01:12:24;;;;;;;4.38;0.70;;;2.40;99.90;;;;;;5040809;28;20301;-72
2021/01/14 01:14:50;;;;;;;5.78;0.95;;;2.40;99.90;;;;;;5047620;28;20512;-71
2021/01/14 01:17:15;;;;;;;3.97;0.80;;;2.40;99.90;;;;;;5053507;28;20053;-72
2021/01/14 01:19:41;;;;;;;7.30;1.30;;;2.50;99.90;;;;;;5046259;28;20194;-72
2021/01/14 01:22:07;;;;;;;7.07;1.10;;;2.50;99.90;;;;;;5064064;28;20547;-71
2021/01/14 01:24:32;;;;;;;3.53;0.88;;;2.60;99.90;;;;;;5064090;28;20466;-71
2021/01/14 01:26:58;;;;;;;7.78;1.10;;;2.60;99.90;;;;;;5063901;28;20074;-72
2021/01/14 01:29:23;;;;;;;7.18;1.20;;;2.50;99.90;;;;;;5064189;28;20046;-72
2021/01/14 01:31:49;;;;;;;7.63;1.40;;;2.40;99.90;;;;;;5059572;28;20033;-71
2021/01/14 01:34:15;;;;;;;8.02;1.33;;;2.40;99.90;;;;;;5058920;28;20072;-72
2021/01/14 01:36:41;;;;;;;6.50;0.85;;;2.40;99.90;;;;;;5060914;28;20052;-71
2021/01/14 01:39:07;;;;;;;7.80;1.48;;;2.40;99.90;;;;;;5046300;28;20056;-71
2021/01/14 01:41:33;;;;;;;5.57;0.90;;;2.60;99.90;;;;;;5045192;28;20110;-70
2021/01/14 01:43:58;;;;;;;12.05;1.15;;;2.60;99.90;;;;;;5063275;28;20323;-71
2021/01/14 01:46:29;;;;;;;10.50;2.25;;;2.70;99.90;;;;;;5064004;28;20079;-71
2021/01/14 01:48:58;;;;;;;10.30;1.38;;;2.70;99.90;;;;;;5062873;28;20516;-70
2021/01/14 01:51:29;;;;;;;8.63;2.90;;;2.60;99.90;;;;;;5063525;28;20384;-70
2021/01/14 01:53:55;;;;;;;9.10;1.20;;;2.60;99.90;;;;;;5063239;28;20053;-71
2021/01/14 01:56:22;;;;;;;5.28;1.25;;;2.60;99.90;;;;;;5064173;28;20051;-71
2021/01/14 01:58:48;;;;;;;6.40;1.70;;;2.60;99.90;;;;;;5063074;28;20055;-69
2021/01/14 02:01:14;;;;;;;6.60;1.05;;;2.50;99.90;;;;;;5063667;28;20084;-70
2021/01/14 02:03:40;;;;;;;11.88;1.30;;;2.60;99.90;;;;;;5061941;28;20523;-70
2021/01/14 02:06:10;;;;;;;7.07;1.40;;;2.40;99.90;;;;;;5063969;28;20083;-69
2021/01/14 02:08:46;;;;;;;8.68;1.33;;;2.40;99.90;;;;;;5062707;28;20067;-70
2021/01/14 02:11:22;;;;;;;8.48;1.25;;;2.50;99.90;;;;;;5063818;28;20408;-70
2021/01/14 02:14:03;;;;;;;10.52;2.08;;;2.30;99.90;;;;;;5042220;28;20689;-70
2021/01/14 02:16:30;;;;;;;13.15;1.48;;;2.40;99.90;;;;;;5063287;28;20048;-71
2021/01/14 02:18:57;;;;;;;7.22;1.55;;;2.30;99.90;;;;;;5058521;28;20079;-70
2021/01/14 02:21:26;;;;;;;7.13;1.13;;;2.40;99.90;;;;;;5064074;28;20074;-71
2021/01/14 02:23:59;;;;;;;8.50;1.40;;;2.50;99.90;;;;;;5063234;28;20090;-72
2021/01/14 02:26:26;;;;;;;14.30;1.80;;;2.50;99.90;;;;;;5062815;28;20080;-70
2021/01/14 02:28:53;;;;;;;9.18;1.35;;;2.50;99.90;;;;;;5063956;28;20044;-71
2021/01/14 02:31:21;;;;;;;9.50;1.70;;;2.50;99.90;;;;;;5045694;28;20051;-70
2021/01/14 02:33:51;;;;;;;14.02;1.48;;;2.40;99.90;;;;;;5061216;28;20044;-70
2021/01/14 02:36:18;;;;;;;15.57;2.97;;;2.40;99.90;;;;;;5063026;28;20079;-71
2021/01/14 02:38:43;;;;;;;14.82;1.92;;;2.40;99.90;;;;;;5062225;28;20048;-71
2021/01/14 02:41:09;;;;;;;17.23;1.65;;;2.50;99.90;;;;;;5062583;28;20056;-70
2021/01/14 02:43:36;;;;;;;12.75;1.55;;;2.50;99.90;;;;;;5054154;28;20131;-69
2021/01/14 02:46:02;;;;;;;11.57;1.48;;;2.40;99.90;;;;;;5064104;28;20044;-70
2021/01/14 02:48:33;;;;;;;10.20;1.67;;;2.30;99.90;;;;;;5053692;28;20048;-71
2021/01/14 02:51:02;;;;;;;10.70;1.90;;;2.20;99.90;;;;;;5062343;28;20052;-70
2021/01/14 02:53:29;;;;;;;16.20;2.22;;;2.20;99.90;;;;;;5057775;28;20071;-70
2021/01/14 02:55:55;;;;;;;18.38;2.08;;;2.20;99.90;;;;;;5062714;28;20529;-70
2021/01/14 02:58:21;;;;;;;10.65;2.05;;;2.10;99.90;;;;;;5050703;28;20408;-70
2021/01/14 03:00:47;;;;;;;12.68;2.67;;;2.10;99.90;;;;;;5063034;28;20127;-70
2021/01/14 03:03:13;;;;;;;7.53;1.50;;;2.10;99.90;;;;;;5062537;28;20044;-70
2021/01/14 03:05:38;;;;;;;9.43;1.30;;;2.10;99.90;;;;;;5062170;28;20053;-70
2021/01/14 03:08:04;;;;;;;19.25;2.95;;;2.20;99.90;;;;;;5061804;28;20069;-70
2021/01/14 03:10:30;;;;;;;9.32;1.30;;;2.20;99.90;;;;;;5061917;28;20051;-70
2021/01/14 03:12:56;;;;;;;15.60;2.15;;;2.30;99.90;;;;;;5062771;28;20113;-69
2021/01/14 03:15:22;;;;;;;10.65;1.35;;;2.30;99.90;;;;;;5044652;28;20040;-70
2021/01/14 03:17:49;;;;;;;14.38;1.58;;;2.40;99.90;;;;;;5061203;28;20048;-71
2021/01/14 03:20:15;;;;;;;5.65;1.40;;;2.40;99.90;;;;;;5062375;28;20052;-71
2021/01/14 03:22:41;;;;;;;11.35;1.55;;;2.40;99.90;;;;;;5061602;28;20044;-71
2021/01/14 03:25:09;;;;;;;11.77;1.75;;;2.50;99.90;;;;;;5062356;28;20058;-71
2021/01/14 03:27:42;;;;;;;18.02;2.35;;;2.50;99.90;;;;;;5062221;28;20048;-71
2021/01/14 03:30:10;;;;;;;15.60;2.15;;;2.50;99.90;;;;;;5061884;28;20052;-69
2021/01/14 03:32:36;;;;;;;12.70;2.05;;;2.50;99.90;;;;;;5061456;28;20981;-71
2021/01/14 03:35:03;;;;;;;11.25;1.92;;;2.50;99.90;;;;;;5044459;28;20099;-71
2021/01/14 03:37:29;;;;;;;9.68;1.40;;;2.50;99.90;;;;;;5062235;28;20455;-71
2021/01/14 03:39:55;;;;;;;23.20;2.80;;;2.50;99.90;;;;;;5061462;28;20044;-71
2021/01/14 03:42:21;;;;;;;13.48;1.70;;;2.40;99.90;;;;;;5062040;28;20567;-71
2021/01/14 03:44:47;;;;;;;11.38;2.03;;;2.40;99.90;;;;;;5061985;28;20110;-70
2021/01/14 03:47:14;;;;;;;12.30;1.90;;;2.40;99.90;;;;;;5060862;28;20243;-72
2021/01/14 03:49:41;;;;;;;7.35;1.40;;;2.30;99.90;;;;;;5061703;28;20048;-71
2021/01/14 03:52:11;;;;;;;16.45;1.83;;;2.30;99.90;;;;;;5066146;28;20051;-70
2021/01/14 03:54:38;;;;;;;15.88;2.63;;;2.30;99.90;;;;;;5066002;28;20486;-70
2021/01/14 03:57:04;;;;;;;15.43;1.90;;;2.30;99.90;;;;;;5066107;28;20086;-71
2021/01/14 03:59:30;;;;;;;9.25;1.42;;;2.20;99.90;;;;;;5065685;28;20060;-71
2021/01/14 04:02:06;;;;;;;9.93;1.50;;;2.20;99.90;;;;;;5065351;28;20040;-71
2021/01/14 04:04:39;;;;;;;11.55;1.80;;;2.20;99.90;;;;;;5066212;28;20102;-71
2021/01/14 04:07:12;;;;;;;15.50;2.05;;;2.20;99.90;;;;;;5047974;28;20079;-70
2021/01/14 04:09:39;;;;;;;9.57;1.88;;;2.20;99.90;;;;;;5055308;28;20049;-70
2021/01/14 04:12:06;;;;;;;7.10;1.50;;;2.20;99.90;;;;;;5055310;28;20040;-71
2021/01/14 04:14:32;;;;;;;14.63;1.83;;;2.30;99.90;;;;;;5064204;28;20071;-71
2021/01/14 04:16:58;;;;;;;6.63;1.48;;;2.20;99.90;;;;;;5056901;28;20052;-70
2021/01/14 04:19:24;;;;;;;16.50;2.08;;;2.20;99.90;;;;;;5051836;28;20221;-70
2021/01/14 04:21:49;;;;;;;15.60;2.40;;;2.20;99.90;;;;;;5060980;28;20468;-72
2021/01/14 04:24:16;;;;;;;5.55;1.35;;;2.20;99.90;;;;;;5051355;28;20036;-71
2021/01/14 04:26:42;;;;;;;9.00;1.77;;;2.20;99.90;;;;;;5061399;28;20045;-71
2021/01/14 04:29:08;;;;;;;12.02;1.42;;;2.10;99.90;;;;;;5049321;28;20052;-70
2021/01/14 04:31:35;;;;;;;13.35;1.55;;;2.10;99.90;;;;;;5060310;28;20032;-70
2021/01/14 04:34:02;;;;;;;8.75;1.60;;;2.20;99.60;;;;;;5045219;28;20053;-71
2021/01/14 04:36:27;;;;;;;6.57;1.70;;;2.10;99.60;;;;;;5046717;28;20056;-70
2021/01/14 04:38:53;;;;;;;7.63;1.42;;;2.10;99.30;;;;;;5048514;28;20037;-69
2021/01/14 04:41:20;;;;;;;10.63;1.92;;;2.10;99.20;;;;;;5063011;28;20060;-71
2021/01/14 04:43:47;;;;;;;7.22;1.60;;;2.20;99.20;;;;;;5045474;28;20048;-72
2021/01/14 04:46:14;;;;;;;14.10;1.60;;;2.10;99.10;;;;;;5064592;28;20048;-72
2021/01/14 04:48:48;;;;;;;9.93;2.17;;;2.00;99.30;;;;;;5043752;28;20045;-71
2021/01/14 04:51:20;;;;;;;6.43;1.40;;;1.90;99.40;;;;;;5064455;28;20041;-71
2021/01/14 04:53:48;;;;;;;13.88;1.58;;;1.90;99.80;;;;;;5065826;28;20098;-71
2021/01/14 04:56:16;;;;;;;8.40;1.67;;;1.80;99.90;;;;;;5065077;28;20051;-70
2021/01/14 04:58:46;;;;;;;11.57;1.92;;;1.70;99.90;;;;;;5063927;28;20033;-71
2021/01/14 05:01:23;;;;;;;11.50;1.90;;;1.60;99.80;;;;;;5064993;28;20087;-71
2021/01/14 05:03:53;;;;;;;9.38;1.55;;;1.60;99.90;;;;;;5047197;28;20099;-71
2021/01/14 05:06:19;;;;;;;11.88;1.88;;;1.60;99.90;;;;;;5065237;28;20258;-71
2021/01/14 05:08:46;;;;;;;12.90;1.67;;;1.60;99.80;;;;;;5064618;28;20056;-70
2021/01/14 05:11:17;;;;;;;14.45;2.35;;;1.60;99.90;;;;;;5064988;28;20451;-71
2021/01/14 05:13:46;;;;;;;7.03;1.80;;;1.70;99.70;;;;;;5064085;28;20501;-71
2021/01/14 05:16:13;;;;;;;14.70;1.83;;;1.70;99.60;;;;;;5065076;28;20131;-71
2021/01/14 05:18:40;;;;;;;11.70;2.13;;;1.70;99.40;;;;;;5063072;28;20036;-71
2021/01/14 05:21:06;;;;;;;11.20;1.83;;;1.80;99.20;;;;;;5064685;28;20081;-70
2021/01/14 05:23:32;;;;;;;10.45;1.48;;;1.80;99.20;;;;;;5063575;28;20041;-71
2021/01/14 05:26:00;;;;;;;9.93;1.63;;;1.90;99.10;;;;;;5064231;28;20048;-71
2021/01/14 05:28:29;;;;;;;8.07;1.52;;;1.90;99.00;;;;;;5042241;28;20674;-71
2021/01/14 05:31:16;;;;;;;7.72;1.27;;;1.90;98.80;;;;;;5063177;28;20045;-70
2021/01/14 05:33:43;;;;;;;8.88;2.28;;;2.00;98.70;;;;;;5062891;28;20412;-71
2021/01/14 05:36:09;;;;;;;9.00;1.80;;;2.00;98.60;;;;;;5064746;28;20620;-71
2021/01/14 05:38:35;;;;;;;13.40;2.05;;;2.00;98.60;;;;;;5064327;28;20040;-70
2021/01/14 05:41:18;;;;;;;7.57;1.42;;;2.00;98.40;;;;;;5063053;28;20059;-70
2021/01/14 05:43:47;;;;;;;;;;;1.90;98.40;;;;;;5045960;28;20051;-70
2021/01/14 05:46:14;;;;;;;13.27;2.13;;;1.90;98.70;;;;;;5063305;28;20308;-71
2021/01/14 05:48:40;;;;;;;11.45;1.60;;;1.80;98.70;;;;;;5062316;28;20782;-71
2021/01/14 05:51:19;;;;;;;8.55;1.75;;;1.80;98.50;;;;;;5063763;28;20064;-71
2021/01/14 05:54:08;;;;;;;7.78;1.95;;;1.90;98.70;;;;;;5063203;28;20044;-69
2021/01/14 05:56:45;;;;;;;14.48;1.92;;;1.80;98.90;;;;;;5044922;28;20052;-70
2021/01/14 05:59:12;;;;;;;6.05;1.67;;;1.70;98.90;;;;;;5063142;28;20448;-71
2021/01/14 06:01:54;;;;;;;14.32;2.20;;;1.70;99.00;;;;;;5062770;28;20075;-70
2021/01/14 06:04:24;;;;;;;11.23;2.22;;;1.60;99.30;;;;;;5064146;28;20041;-71
2021/01/14 06:06:51;;;;;;;16.60;1.63;;;1.70;99.20;;;;;;5046174;28;20516;-70
2021/01/14 06:09:19;;;;;;;9.18;1.98;;;1.60;99.40;;;;;;5044959;28;20406;-72
2021/01/14 06:11:46;;;;;;;7.13;1.88;;;1.60;99.50;;;;;;5063297;28;20128;-70
2021/01/14 06:14:39;;;;;;;15.88;2.80;;;1.60;99.50;;;;;;5062322;28;20499;-72
2021/01/14 06:17:08;;;;;;;17.88;2.88;;;1.50;99.70;;;;;;5058088;28;20059;-70
2021/01/14 06:19:35;;;;;;;12.25;2.42;;;1.50;99.60;;;;;;5063044;28;20295;-71
2021/01/14 06:22:02;;;;;;;8.10;1.90;;;1.50;99.80;;;;;;5063043;28;20412;-71
2021/01/14 06:24:36;;;;;;;6.72;2.20;;;1.50;99.80;;;;;;5062155;28;20044;-70
2021/01/14 06:27:04;;;;;;;9.82;2.13;;;1.50;99.90;;;;;;5050900;28;20119;-72
2021/01/14 06:29:30;;;;;;;13.85;2.50;;;1.40;99.90;;;;;;5063683;28;20045;-71
2021/01/14 06:32:13;;;;;;;13.13;2.17;;;1.40;99.90;;;;;;5047891;28;20044;-71
2021/01/14 06:34:41;;;;;;;11.82;2.42;;;1.40;99.90;;;;;;5062568;28;20048;-71
2021/01/14 06:37:19;;;;;;;12.00;2.53;;;1.40;99.90;;;;;;5062872;28;20028;-71
2021/01/14 06:39:50;;;;;;;7.05;2.08;;;1.30;99.90;;;;;;5063481;28;20040;-71
2021/01/14 06:42:18;;;;;;;9.32;2.10;;;1.40;99.90;;;;;;5062692;28;20056;-70
2021/01/14 06:44:55;;;;;;;11.35;2.97;;;1.60;99.60;;;;;;5062519;28;20083;-71
2021/01/14 06:47:34;;;;;;;9.65;2.30;;;1.50;99.30;;;;;;5049066;28;20333;-72
2021/01/14 06:50:26;;;;;;;12.98;2.40;;;1.40;99.70;;;;;;5062916;28;20050;-71
2021/01/14 06:53:00;;;;;;;6.20;2.28;;;1.40;99.60;;;;;;5062704;28;20037;-71
2021/01/14 06:55:31;;;;;;;11.60;2.53;;;1.50;99.60;;;;;;5062325;28;20048;-71
2021/01/14 06:58:02;;;;;;;7.22;2.53;;;1.50;99.70;;;;;;5055633;28;20071;-72
2021/01/14 07:00:29;;;;;;;6.05;1.58;;;1.70;99.30;;;;;;5047146;28;20140;-71
2021/01/14 07:03:09;;;;;;;6.85;2.03;;;1.80;99.10;;;;;;5061041;28;20056;-71
2021/01/14 07:05:38;;;;;;;10.18;2.00;;;1.90;98.90;;;;;;5043831;28;20497;-70
2021/01/14 07:08:28;;;;;;;19.88;2.47;;;1.70;98.90;;;;;;5061912;28;20157;-71
2021/01/14 07:11:02;;;;;;;16.05;2.47;;;1.90;98.70;;;;;;5057920;28;20040;-71
2021/01/14 07:13:32;;;;;;;13.82;2.63;;;2.00;98.40;;;;;;5057253;28;20051;-70
2021/01/14 07:15:58;;;;;;;10.82;2.55;;;2.00;98.60;;;;;;5055920;28;20048;-72
2021/01/14 07:18:28;;;;;;;5.72;1.88;;;1.90;98.60;;;;;;5054332;28;20041;-71
2021/01/14 07:20:56;;;;;;;10.93;2.47;;;1.90;98.80;;;;;;5057333;28;20568;-71
2021/01/14 07:23:25;;;;;;;11.70;2.65;;;1.90;98.50;;;;;;5059738;28;20033;-71
2021/01/14 07:25:52;;;;;;;9.25;2.72;;;1.90;98.60;;;;;;5060552;28;20036;-69
2021/01/14 07:28:18;;;;;;;9.50;2.63;;;1.80;98.60;;;;;;5040387;28;20045;-69
2021/01/14 07:30:43;;;;;;;8.40;3.42;;;1.70;98.60;;;;;;5061979;28;20198;-70
2021/01/14 07:33:10;;;;;;;10.70;3.53;;;1.70;98.50;;;;;;5053712;28;20723;-70
2021/01/14 07:35:44;;;;;;;10.25;2.80;;;2.00;99.90;;;;;;5058075;28;20334;-71
2021/01/14 07:38:15;;;;;;;12.88;3.28;;;2.10;99.00;;;;;;5059422;28;20043;-70
2021/01/14 07:40:43;;;;;;;7.75;2.88;;;2.00;98.50;;;;;;5057969;28;20039;-71
2021/01/14 07:43:11;;;;;;;8.02;2.55;;;2.00;97.70;;;;;;5058191;28;20049;-70
2021/01/14 07:45:38;;;;;;;15.38;2.97;;;2.20;97.60;;;;;;5059142;28;20493;-71
2021/01/14 07:48:23;;;;;;;14.77;3.40;;;2.10;97.60;;;;;;5059713;28;20059;-70
2021/01/14 07:50:51;;;;;;;7.38;2.30;;;2.20;97.30;;;;;;5059968;28;20040;-70
2021/01/14 07:53:17;;;;;;;9.70;3.08;;;2.40;97.20;;;;;;5056716;28;20123;-69
2021/01/14 07:55:43;;;;;;;9.80;2.88;;;2.50;97.10;;;;;;5058873;28;20098;-70
2021/01/14 07:58:12;;;;;;;11.50;2.65;;;2.90;96.30;;;;;;5058621;28;20040;-70
2021/01/14 08:00:40;;;;;;;9.68;2.80;;;3.30;95.70;;;;;;5062974;28;20037;-70
2021/01/14 08:03:13;;;;;;;18.38;2.70;;;3.70;94.70;;;;;;5059361;28;20047;-71
2021/01/14 08:05:40;;;;;;;6.05;3.50;;;4.00;94.40;;;;;;5058077;28;20074;-71
2021/01/14 08:08:25;;;;;;;8.75;3.08;;;4.40;93.50;;;;;;5060552;28;20052;-70
2021/01/14 08:11:07;;;;;;;6.50;2.42;;;4.80;92.80;;;;;;5057453;28;20040;-70
2021/01/14 08:14:05;;;;;;;9.27;2.90;;;5.10;92.40;;;;;;5053916;28;20040;-71
2021/01/14 08:16:33;;;;;;;11.60;3.28;;;5.50;91.90;;;;;;5054800;28;20113;-70
2021/01/14 08:19:29;;;;;;;10.38;4.03;;;5.70;90.80;;;;;;5057472;28;20048;-71
2021/01/14 08:22:05;;;;;;;6.93;2.60;;;6.40;90.50;;;;;;5061555;28;20037;-72
2021/01/14 08:24:52;;;;;;;9.98;3.70;;;6.70;89.50;;;;;;5061263;28;20128;-72
2021/01/14 08:27:20;;;;;;;11.07;3.20;;;7.00;87.30;;;;;;5043324;28;20050;-71
2021/01/14 08:29:56;;;;;;;8.32;2.65;;;7.10;86.60;;;;;;5060992;28;20051;-72
2021/01/14 08:32:32;;;;;;;10.52;2.70;;;7.40;88.10;;;;;;5058835;28;20497;-70
2021/01/14 08:35:00;;;;;;;9.75;2.80;;;7.50;84.80;;;;;;5054258;28;20082;-71
2021/01/14 08:37:44;;;;;;;10.68;3.67;;;7.60;84.40;;;;;;5051707;28;20147;-70
2021/01/14 08:40:23;;;;;;;11.05;3.40;;;7.10;85.00;;;;;;5057644;28;20059;-71
2021/01/14 08:43:12;;;;;;;7.50;3.33;;;6.20;89.20;;;;;;5054375;28;20126;-71
2021/01/14 08:45:55;;;;;;;14.25;3.40;;;5.40;91.00;;;;;;5055565;28;20123;-71
2021/01/14 08:48:30;;;;;;;5.35;2.65;;;5.50;90.50;;;;;;5048808;28;20074;-70
2021/01/14 08:50:56;;;;;;;10.02;3.50;;;4.90;91.60;;;;;;5045042;28;20047;-70
2021/01/14 08:53:22;;;;;;;14.55;3.60;;;4.50;92.40;;;;;;5054625;28;20036;-70
2021/01/14 08:56:04;;;;;;;12.50;3.25;;;4.30;92.80;;;;;;5063771;28;20044;-69
2021/01/14 08:58:43;;;;;;;11.20;3.38;;;4.20;93.20;;;;;;5051840;28;20489;-71
2021/01/14 09:01:17;;;;;;;8.10;3.40;;;4.10;93.50;;;;;;5058275;28;20053;-72
2021/01/14 09:03:45;;;;;;;9.82;3.47;;;4.10;93.50;;;;;;5063058;28;20044;-71
2021/01/14 09:06:38;;;;;;;8.77;2.95;;;4.10;93.60;;;;;;5061120;28;20389;-71
2021/01/14 09:09:05;;;;;;;14.13;3.45;;;4.10;93.70;;;;;;5058958;28;20037;-72
2021/01/14 09:11:32;;;;;;;9.20;3.58;;;4.00;93.80;;;;;;5060990;28;20417;-71
2021/01/14 09:14:08;;;;;;;9.07;3.92;;;4.10;94.20;;;;;;5061172;28;20058;-71
2021/01/14 09:16:34;;;;;;;7.00;3.50;;;4.10;94.10;;;;;;5060074;28;20039;-71
2021/01/14 09:19:00;;;;;;;12.00;3.67;;;4.10;94.10;;;;;;5062506;28;20044;-71
2021/01/14 09:21:33;;;;;;;10.05;3.75;;;4.10;94.20;;;;;;5063276;28;20434;-72
2021/01/14 09:24:06;;;;;;;11.23;4.47;;;4.30;93.80;;;;;;5064238;28;20048;-70
2021/01/14 09:26:32;;;;;;;10.75;3.92;;;4.60;93.70;;;;;;5063772;28;20044;-72
2021/01/14 09:28:58;;;;;;;11.88;3.88;;;5.00;92.70;;;;;;5064554;28;20040;-70
2021/01/14 09:31:28;;;;;;;8.18;3.35;;;5.30;92.20;;;;;;5062649;28;20079;-71
2021/01/14 09:33:58;;;;;;;8.23;3.50;;;5.60;91.70;;;;;;5045599;28;20593;-72
2021/01/14 09:36:24;;;;;;;10.65;4.28;;;5.80;91.80;;;;;;5063775;28;20044;-71
2021/01/14 09:39:16;;;;;;;7.65;4.07;;;5.90;91.10;;;;;;5062029;28;20051;-71
2021/01/14 09:41:42;;;;;;;8.90;3.60;;;6.80;89.60;;;;;;5062831;28;20055;-72
2021/01/14 09:44:13;;;;;;;8.95;3.88;;;6.30;90.10;;;;;;5057077;28;20409;-72
2021/01/14 09:46:43;;;;;;;14.00;4.35;;;7.00;90.00;;;;;;5060086;28;20048;-71
2021/01/14 09:49:11;;;;;;;10.63;3.67;;;8.30;86.00;;;;;;5056816;28;20040;-72
2021/01/14 09:51:39;;;;;;;7.72;3.33;;;8.80;82.10;;;;;;5059726;28;20167;-70
2021/01/14 09:54:06;;;;;;;10.90;3.63;;;9.50;79.70;;;;;;5061675;28;20063;-72
2021/01/14 09:56:38;;;;;;;9.98;3.55;;;10.40;77.00;;;;;;5040058;28;20516;-72
2021/01/14 09:59:27;;;;;;;7.78;3.80;;;10.70;75.70;;;;;;5062189;28;20040;-71
2021/01/14 10:02:20;;;;;;;10.60;3.85;;;9.90;76.50;;;;;;5062440;28;20051;-72
2021/01/14 10:04:54;;;;;;;9.52;3.72;;;10.00;76.30;;;;;;5062885;28;20046;-71
2021/01/14 10:07:21;;;;;;;12.13;3.75;;;11.30;73.30;;;;;;5060917;28;20397;-71
2021/01/14 10:09:49;;;;;;;9.93;3.42;;;11.00;73.90;;;;;;5062499;28;20363;-72
2021/01/14 10:12:15;;;;;;;8.38;3.58;;;10.90;73.10;;;;;;5063064;28;20052;-74
2021/01/14 10:14:42;;;;;;;12.25;4.43;;;11.00;74.80;;;;;;5063344;28;20048;-72
2021/01/14 10:17:12;;;;;;;8.75;3.33;;;11.20;73.00;;;;;;5061741;28;20041;-72
2021/01/14 10:19:40;;;;;;;10.02;3.33;;;10.90;73.20;;;;;;5044858;28;20537;-72
2021/01/14 10:22:07;;;;;;;7.45;3.47;;;11.00;73.00;;;;;;5045233;28;20098;-74
2021/01/14 10:24:33;;;;;;;10.48;3.65;;;11.20;73.80;;;;;;5062600;28;20276;-72
2021/01/14 10:27:12;;;;;;;8.55;3.60;;;11.00;73.00;;;;;;5062615;28;20037;-72
2021/01/14 10:29:39;;;;;;;8.02;2.83;;;11.10;72.60;;;;;;5062123;28;20133;-72
2021/01/14 10:32:10;;;;;;;12.82;3.50;;;11.40;72.40;;;;;;5061558;28;20640;-72
2021/01/14 10:34:44;;;;;;;7.22;3.25;;;11.50;72.30;;;;;;5061938;28;20547;-72
2021/01/14 10:37:27;;;;;;;5.93;3.33;;;11.70;71.40;;;;;;5063323;28;20044;-72
2021/01/14 10:40:01;;;;;;;11.80;4.07;;;12.20;70.80;;;;;;5062299;28;20044;-71
2021/01/14 10:42:37;;;;;;;8.52;3.70;;;11.60;71.80;;;;;;5061255;28;20456;-73
2021/01/14 10:45:06;;;;;;;9.23;3.40;;;11.90;71.50;;;;;;5063407;28;20119;-71
2021/01/14 10:47:33;;;;;;;14.63;3.40;;;11.40;72.60;;;;;;5062265;28;20040;-73
2021/01/14 10:49:59;;;;;;;7.57;3.83;;;11.70;72.10;;;;;;5044345;28;20048;-69
2021/01/14 10:52:24;;;;;;;7.05;3.15;;;11.70;71.90;;;;;;5061540;28;20043;-71
2021/01/14 10:54:57;;;;;;;6.38;3.05;;;11.10;73.30;;;;;;5063283;28;20166;-71
2021/01/14 10:57:23;;;;;;;;;;;11.10;73.50;;;;;;5062924;28;20048;-71
2021/01/14 10:59:48;;;;;;;7.82;3.22;;;12.00;72.60;;;;;;5062586;28;19931;-73
2021/01/14 11:02:21;;;;;;;10.25;3.30;;;11.80;71.60;;;;;;5061031;28;20045;-71
2021/01/14 11:04:54;;;;;;;;;;;12.20;70.40;;;;;;5063087;28;20037;-71
2021/01/14 11:07:19;;;;;;;9.77;3.20;;;11.80;70.90;;;;;;5061598;28;19916;-71
2021/01/14 11:09:50;;;;;;;9.05;3.38;;;12.40;71.00;;;;;;5060996;28;20497;-70
2021/01/14 11:12:15;;;;;;;7.18;3.60;;;12.10;71.20;;;;;;5060823;28;20144;-72
2021/01/14 11:14:41;;;;;;;10.88;3.95;;;11.90;70.60;;;;;;5061221;28;20047;-71
2021/01/14 11:17:06;;;;;;;9.23;3.90;;;12.60;69.50;;;;;;5043162;28;20044;-71
2021/01/14 11:19:32;;;;;;;13.82;5.30;;;12.10;69.50;;;;;;5061362;28;20040;-73
2021/01/14 11:21:58;;;;;;;20.75;7.40;;;12.10;69.30;;;;;;5053593;28;20151;-71
2021/01/14 11:24:23;;;;;;;25.75;9.80;;;11.80;70.20;;;;;;5059510;28;20498;-73
2021/01/14 11:26:52;;;;;;;25.98;8.65;;;12.50;68.70;;;;;;5053664;28;20052;-71
2021/01/14 11:29:18;;;;;;;25.35;10.10;;;12.00;72.00;;;;;;5055722;28;20044;-73
2021/01/14 11:31:43;;;;;;;25.95;7.38;;;12.50;71.50;;;;;;5059150;28;20064;-72
2021/01/14 11:34:09;;;;;;;30.70;8.98;;;12.80;70.10;;;;;;5057012;28;20047;-71
2021/01/14 11:36:34;;;;;;;23.00;8.65;;;12.60;68.80;;;;;;5059570;28;20546;-72
2021/01/14 11:39:00;;;;;;;17.05;7.93;;;12.50;69.40;;;;;;5062503;28;20049;-72
2021/01/14 11:41:26;;;;;;;9.00;3.83;;;11.90;70.30;;;;;;5059015;28;20048;-70
2021/01/14 11:43:51;;;;;;;20.45;8.13;;;11.30;70.10;;;;;;5043349;28;20037;-73
2021/01/14 11:46:26;;;;;;;13.82;6.13;;;10.10;74.70;;;;;;5059995;28;20211;-71
2021/01/14 11:48:53;;;;;;;22.35;9.75;;;10.00;76.00;;;;;;5041390;28;20124;-72
2021/01/14 11:51:19;;;;;;;13.45;5.65;;;10.50;75.70;;;;;;5057378;28;20052;-72
2021/01/14 11:53:45;;;;;;;20.27;8.20;;;10.30;75.10;;;;;;5061144;28;20117;-72
2021/01/14 11:56:14;;;;;;;12.15;3.75;;;10.10;76.70;;;;;;5039464;28;20119;-71
2021/01/14 11:58:40;;;;;;;31.63;11.65;;;9.90;75.70;;;;;;5059583;28;20173;-72
2021/01/14 12:01:06;;;;;;;18.50;6.75;;;10.70;76.50;;;;;;5059564;28;20439;-72
2021/01/14 12:03:33;;;;;;;34.72;12.77;;;10.40;75.70;;;;;;5060860;28;20048;-71
2021/01/14 12:05:58;;;;;;;14.82;5.93;;;11.60;73.20;;;;;;5061596;28;20064;-73
2021/01/14 12:08:24;;;;;;;20.58;8.48;;;12.40;71.10;;;;;;5057843;28;20052;-71
2021/01/14 12:10:50;;;;;;;10.32;4.07;;;12.60;69.20;;;;;;5058037;28;20052;-72
2021/01/14 12:13:15;;;;;;;15.85;5.18;;;12.50;67.80;;;;;;5061596;28;20083;-73
2021/01/14 12:15:41;;;;;;;23.75;9.30;;;13.00;67.30;;;;;;5063308;28;20493;-72
2021/01/14 12:18:07;;;;;;;17.33;8.20;;;12.90;66.50;;;;;;5064142;28;20484;-72
2021/01/14 12:20:32;;;;;;;12.68;5.15;;;13.10;66.30;;;;;;5063806;28;20135;-72
2021/01/14 12:22:58;;;;;;;10.13;5.07;;;13.20;65.50;;;;;;5064999;28;20692;-72
2021/01/14 12:25:24;;;;;;;8.90;3.80;;;13.00;65.20;;;;;;5063714;28;20041;-71
2021/01/14 12:27:50;;;;;;;13.23;5.43;;;13.10;65.20;;;;;;5064474;28;20370;-72
2021/01/14 12:30:16;;;;;;;9.73;4.63;;;13.30;65.10;;;;;;5065196;28;20063;-71
2021/01/14 12:32:41;;;;;;;8.80;4.10;;;13.70;65.20;;;;;;5063092;28;20500;-72
2021/01/14 12:35:07;;;;;;;9.05;3.00;;;13.50;64.00;;;;;;5063958;28;20036;-71
2021/01/14 12:37:38;;;;;;;8.23;3.67;;;12.80;65.80;;;;;;5063212;28;20052;-73
2021/01/14 12:40:06;;;;;;;8.93;3.83;;;13.20;64.70;;;;;;5065864;28;20044;-72
2021/01/14 12:42:32;;;;;;;7.68;3.40;;;13.40;64.40;;;;;;5063884;28;20068;-72
2021/01/14 12:44:57;;;;;;;6.15;3.53;;;13.30;64.20;;;;;;5063264;28;20044;-72
2021/01/14 12:47:23;;;;;;;11.93;3.97;;;13.10;65.50;;;;;;5061280;28;20066;-72
2021/01/14 12:49:49;;;;;;;8.52;3.38;;;13.20;65.80;;;;;;5064223;28;20520;-72
2021/01/14 12:52:15;;;;;;;10.63;3.40;;;13.20;65.20;;;;;;5063767;28;20284;-72
2021/01/14 12:54:40;;;;;;;5.80;3.40;;;13.10;65.00;;;;;;5064688;28;20439;-73
2021/01/14 12:57:06;;;;;;;5.70;3.50;;;13.40;65.80;;;;;;5064220;28;20441;-73
2021/01/14 12:59:31;;;;;;;8.43;3.40;;;12.20;67.90;;;;;;5064441;28;20044;-70
2021/01/14 13:01:57;;;;;;;9.90;3.30;;;12.50;68.50;;;;;;5063882;28;20040;-74